createdAt,value
2022-08-17T00:00:43.158Z,83.18
2022-08-17T00:03:30.576Z,83.43
2022-08-17T00:06:15.998Z,83.19
2022-08-17T00:08:56.702Z,83.32
2022-08-17T00:11:32.316Z,83.25
2022-08-17T00:14:04.925Z,83.92
2022-08-17T00:16:56.657Z,83.94
2022-08-17T00:19:26.371Z,83.99
2022-08-17T00:22:31.479Z,84.37
2022-08-17T00:24:45.596Z,84.43
2022-08-17T00:27:13.567Z,84.80
2022-08-17T00:29:42.318Z,85.06
2022-08-17T00:33:14.072Z,84.89
2022-08-17T00:34:58.347Z,84.58
2022-08-17T00:37:26.339Z,84.42
2022-08-17T00:39:54.398Z,84.59
2022-08-17T00:42:22.353Z,84.31
2022-08-17T00:44:50.336Z,84.34
2022-08-17T00:47:18.329Z,84.33
2022-08-17T00:49:46.271Z,84.70
2022-08-17T00:52:20.649Z,85.02
2022-08-17T00:54:52.411Z,85.05
2022-08-17T00:57:26.575Z,85.07
2022-08-17T01:00:03.190Z,84.99
2022-08-17T01:02:42.347Z,85.01
2022-08-17T01:05:17.213Z,85.60
2022-08-17T01:07:50.255Z,85.29
2022-08-17T01:10:58.995Z,85.48
2022-08-17T01:13:12.369Z,85.35
2022-08-17T01:15:48.894Z,85.42
2022-08-17T01:18:16.990Z,85.80
2022-08-17T01:20:52.308Z,85.54
2022-08-17T01:23:23.618Z,85.25
2022-08-17T01:25:55.107Z,85.31
2022-08-17T01:28:36.476Z,84.89
2022-08-17T01:31:14.743Z,84.56
2022-08-17T01:33:43.082Z,84.71
2022-08-17T01:36:11.198Z,84.80
2022-08-17T01:38:40.566Z,84.09
2022-08-17T01:41:13.806Z,84.05
2022-08-17T01:43:55.388Z,84.15
2022-08-17T01:46:27.252Z,83.90
2022-08-17T01:48:57.715Z,83.99
2022-08-17T01:51:33.292Z,84.03
2022-08-17T01:54:06.971Z,84.04
2022-08-17T01:56:38.795Z,83.64
2022-08-17T01:59:06.780Z,83.11
2022-08-17T02:01:35.823Z,82.79
2022-08-17T02:04:06.745Z,82.44
2022-08-17T02:06:45.080Z,82.22
2022-08-17T02:09:26.343Z,82.05
2022-08-17T02:12:37.939Z,81.73
2022-08-17T02:14:48.677Z,81.75
2022-08-17T02:17:16.751Z,81.62
2022-08-17T02:19:44.560Z,81.76
2022-08-17T02:22:13.779Z,81.84
2022-08-17T02:25:00.929Z,81.85
2022-08-17T02:27:30.530Z,81.94
2022-08-17T02:29:58.484Z,82.38
2022-08-17T02:32:28.227Z,81.71
2022-08-17T02:35:01.019Z,81.68
2022-08-17T02:37:30.183Z,81.43
2022-08-17T02:39:59.636Z,81.73
2022-08-17T02:42:42.985Z,81.83
2022-08-17T02:45:17.667Z,82.15
2022-08-17T02:47:46.410Z,82.44
2022-08-17T02:50:17.856Z,82.84
2022-08-17T02:52:48.876Z,82.78
2022-08-17T02:55:33.456Z,82.76
2022-08-17T02:58:03.727Z,82.73
2022-08-17T03:00:36.770Z,82.95
2022-08-17T03:03:06.235Z,83.07
2022-08-17T03:05:36.487Z,83.12
2022-08-17T03:08:06.754Z,83.05
2022-08-17T03:10:39.770Z,83.41
2022-08-17T03:13:07.742Z,83.55
2022-08-17T03:15:35.737Z,83.64
2022-08-17T03:18:08.586Z,83.61
2022-08-17T03:20:47.102Z,83.51
2022-08-17T03:23:15.111Z,83.70
2022-08-17T03:25:46.729Z,83.40
2022-08-17T03:28:14.795Z,83.34
2022-08-17T03:30:42.795Z,83.48
2022-08-17T03:33:12.929Z,83.75
2022-08-17T03:35:41.326Z,84.23
2022-08-17T03:38:11.396Z,84.36
2022-08-17T03:40:56.792Z,83.81
2022-08-17T03:43:30.794Z,83.89
2022-08-17T03:46:34.372Z,83.71
2022-08-17T03:49:24.565Z,83.57
2022-08-17T03:52:12.907Z,83.55
2022-08-17T03:55:00.954Z,83.71
2022-08-17T03:57:30.436Z,83.63
2022-08-17T04:00:00.064Z,83.60
2022-08-17T04:02:31.603Z,83.63
2022-08-17T04:05:00.290Z,83.44
2022-08-17T04:07:31.269Z,83.37
2022-08-17T04:09:59.879Z,83.25
2022-08-17T04:12:42.148Z,82.99
2022-08-17T04:15:11.948Z,83.03
2022-08-17T04:17:40.649Z,83.14
2022-08-17T04:20:09.380Z,83.44
2022-08-17T04:22:37.262Z,83.51
2022-08-17T04:25:16.053Z,83.88
2022-08-17T04:27:44.074Z,83.87
2022-08-17T04:30:13.279Z,83.74
2022-08-17T04:33:09.726Z,83.25
2022-08-17T04:35:50.822Z,82.79
2022-08-17T04:38:21.639Z,82.61
2022-08-17T04:41:08.319Z,82.51
2022-08-17T04:43:38.854Z,82.31
2022-08-17T04:46:10.158Z,82.08
2022-08-17T04:48:42.764Z,81.78
2022-08-17T04:51:18.207Z,81.68
2022-08-17T04:53:54.057Z,81.43
2022-08-17T04:56:26.110Z,81.20
2022-08-17T04:58:58.795Z,81.00
2022-08-17T05:01:28.950Z,81.56
2022-08-17T05:04:18.378Z,81.39
2022-08-17T05:06:50.131Z,81.52
2022-08-17T05:09:18.548Z,81.51
2022-08-17T05:11:47.334Z,81.28
2022-08-17T05:14:15.354Z,81.17
2022-08-17T05:16:43.202Z,80.74
2022-08-17T05:19:10.992Z,80.37
2022-08-17T05:21:38.876Z,80.43
2022-08-17T05:24:16.718Z,80.73
2022-08-17T05:26:54.694Z,80.73
2022-08-17T05:29:23.278Z,80.74
2022-08-17T05:32:38.224Z,80.73
2022-08-17T05:35:00.707Z,80.45
2022-08-17T05:37:28.977Z,80.34
2022-08-17T05:39:56.931Z,80.32
2022-08-17T05:42:24.874Z,80.05
2022-08-17T05:44:52.886Z,79.82
2022-08-17T05:47:24.149Z,79.58
2022-08-17T05:49:53.901Z,79.11
2022-08-17T05:52:40.498Z,78.43
2022-08-17T05:55:18.212Z,78.40
2022-08-17T05:57:53.079Z,78.14
2022-08-17T06:00:30.575Z,78.02
2022-08-17T06:03:23.757Z,78.05
2022-08-17T06:06:16.075Z,78.11
2022-08-17T06:09:14.472Z,78.08
2022-08-17T06:11:42.247Z,78.16
2022-08-17T06:14:35.561Z,77.80
2022-08-17T06:17:08.825Z,76.62
2022-08-17T06:19:54.760Z,76.21
2022-08-17T06:22:28.254Z,76.11
2022-08-17T06:25:22.662Z,75.29
2022-08-17T06:27:56.791Z,75.04
2022-08-17T06:30:28.436Z,74.72
2022-08-17T06:33:07.945Z,73.97
2022-08-17T06:36:09.496Z,73.36
2022-08-17T06:39:22.863Z,72.43
2022-08-17T06:43:02.331Z,72.10
2022-08-17T06:45:09.893Z,71.73
2022-08-17T06:47:48.841Z,71.60
2022-08-17T06:50:44.342Z,71.40
2022-08-17T06:53:12.201Z,71.53
2022-08-17T06:56:00.004Z,71.46
2022-08-17T06:58:31.464Z,71.33
2022-08-17T07:01:16.317Z,70.64
2022-08-17T07:04:11.866Z,69.89
2022-08-17T07:06:44.718Z,69.69
2022-08-17T07:09:23.362Z,68.87
2022-08-17T07:11:57.246Z,66.90
2022-08-17T07:14:54.412Z,67.24
2022-08-17T07:17:46.955Z,67.37
2022-08-17T07:20:15.978Z,67.18
2022-08-17T07:22:59.815Z,67.27
2022-08-17T07:25:30.940Z,66.26
2022-08-17T07:28:06.030Z,65.64
2022-08-17T07:30:47.587Z,65.65
2022-08-17T07:33:23.696Z,65.34
2022-08-17T07:35:52.191Z,65.37
2022-08-17T07:38:29.712Z,64.76
2022-08-17T07:41:04.941Z,65.01
2022-08-17T07:43:42.094Z,64.62
2022-08-17T07:46:47.850Z,63.82
2022-08-17T07:49:16.987Z,62.57
2022-08-17T07:51:45.795Z,61.81
2022-08-17T07:54:18.544Z,61.28
2022-08-17T07:56:52.681Z,61.16
2022-08-17T07:59:28.619Z,61.34
2022-08-17T08:02:15.055Z,61.73
2022-08-17T08:05:01.339Z,62.04
2022-08-17T08:07:35.614Z,61.79
2022-08-17T08:10:25.580Z,61.83
2022-08-17T08:13:14.028Z,60.35
2022-08-17T08:15:53.593Z,59.89
2022-08-17T08:18:54.967Z,60.43
2022-08-17T08:21:29.181Z,60.96
2022-08-17T08:24:06.236Z,61.25
2022-08-17T08:26:46.489Z,60.94
2022-08-17T08:29:32.431Z,60.74
2022-08-17T08:32:21.866Z,60.01
2022-08-17T08:35:08.962Z,59.84
2022-08-17T08:38:02.111Z,60.08
2022-08-17T08:41:00.949Z,60.22
2022-08-17T08:43:38.290Z,59.25
2022-08-17T08:46:25.960Z,58.95
2022-08-17T08:49:10.161Z,59.33
2022-08-17T08:51:52.277Z,59.41
2022-08-17T08:54:42.781Z,59.08
2022-08-17T08:57:30.766Z,58.89
2022-08-17T09:00:10.145Z,58.30
2022-08-17T09:02:40.722Z,58.28
2022-08-17T09:05:16.274Z,58.33
2022-08-17T09:07:59.340Z,58.52
2022-08-17T09:10:34.990Z,58.86
2022-08-17T09:13:41.358Z,58.94
2022-08-17T09:16:15.386Z,59.02
2022-08-17T09:19:03.007Z,58.85
2022-08-17T09:21:38.252Z,58.26
2022-08-17T09:24:37.874Z,57.63
2022-08-17T09:27:09.406Z,57.05
2022-08-17T09:29:43.662Z,56.90
2022-08-17T09:32:25.012Z,56.02
2022-08-17T09:34:57.398Z,54.98
2022-08-17T09:37:37.644Z,55.16
2022-08-17T09:40:25.685Z,55.05
2022-08-17T09:43:00.932Z,54.16
2022-08-17T09:45:38.088Z,54.38
2022-08-17T09:48:20.852Z,54.58
2022-08-17T09:51:27.076Z,54.30
2022-08-17T09:54:09.502Z,54.02
2022-08-17T09:57:29.184Z,52.72
2022-08-17T10:00:16.965Z,51.70
2022-08-17T10:03:04.569Z,52.07
2022-08-17T10:05:48.048Z,52.67
2022-08-17T10:08:32.152Z,52.68
2022-08-17T10:11:11.682Z,51.89
2022-08-17T10:14:36.720Z,50.85
2022-08-17T10:17:25.259Z,50.82
2022-08-17T10:20:06.787Z,50.29
2022-08-17T10:23:07.831Z,50.44
2022-08-17T10:26:02.762Z,50.32
2022-08-17T10:28:39.912Z,49.58
2022-08-17T10:31:33.667Z,48.50
2022-08-17T10:34:40.961Z,48.41
2022-08-17T10:37:19.608Z,48.52
2022-08-17T10:40:07.188Z,48.95
2022-08-17T10:42:50.256Z,48.49
2022-08-17T10:45:45.557Z,47.14
2022-08-17T10:48:27.027Z,47.34
2022-08-17T10:51:08.783Z,47.15
2022-08-17T10:53:37.830Z,47.20
2022-08-17T10:56:14.318Z,46.74
2022-08-17T10:58:57.411Z,46.65
2022-08-17T11:01:34.997Z,47.05
2022-08-17T11:04:11.810Z,47.47
2022-08-17T11:06:42.115Z,47.14
2022-08-17T11:09:28.334Z,46.32
2022-08-17T11:12:25.645Z,45.88
2022-08-17T11:15:00.493Z,45.55
2022-08-17T11:17:43.246Z,45.21
2022-08-17T11:20:30.573Z,45.62
2022-08-17T11:22:59.141Z,45.42
2022-08-17T11:25:47.356Z,44.49
2022-08-17T11:28:48.891Z,44.84
2022-08-17T11:31:38.904Z,44.88
2022-08-17T11:34:19.780Z,44.22
2022-08-17T11:37:02.101Z,44.13
2022-08-17T11:39:51.393Z,43.50
2022-08-17T11:42:31.225Z,43.48
2022-08-17T11:45:32.383Z,43.15
2022-08-17T11:48:42.639Z,42.96
2022-08-17T11:51:36.040Z,42.50
2022-08-17T11:54:33.431Z,42.33
2022-08-17T11:57:27.573Z,42.45
2022-08-17T11:59:58.766Z,42.62
2022-08-17T12:02:34.467Z,41.72
2022-08-17T12:05:15.491Z,41.97
2022-08-17T12:07:59.428Z,41.93
2022-08-17T12:10:34.331Z,41.93
2022-08-17T12:13:15.853Z,42.53
2022-08-17T12:15:49.841Z,42.63
2022-08-17T12:18:25.136Z,42.29
2022-08-17T12:21:09.146Z,41.42
2022-08-17T12:23:59.356Z,41.35
2022-08-17T12:26:31.860Z,41.23
2022-08-17T12:29:06.447Z,40.96
2022-08-17T12:31:44.697Z,40.42
2022-08-17T12:34:19.103Z,39.74
2022-08-17T12:36:53.070Z,40.04
2022-08-17T12:39:24.981Z,40.15
2022-08-17T12:42:01.980Z,40.60
2022-08-17T12:44:34.118Z,40.05
2022-08-17T12:47:22.870Z,40.23
2022-08-17T12:49:53.731Z,39.75
2022-08-17T12:52:28.431Z,40.14
2022-08-17T12:55:02.112Z,40.05
2022-08-17T12:57:38.919Z,40.43
2022-08-17T13:00:17.795Z,40.16
2022-08-17T13:02:58.868Z,39.80
2022-08-17T13:05:34.114Z,39.95
2022-08-17T13:08:15.376Z,39.96
2022-08-17T13:10:53.392Z,38.66
2022-08-17T13:13:28.285Z,38.05
2022-08-17T13:16:27.627Z,38.25
2022-08-17T13:19:08.055Z,38.67
2022-08-17T13:21:38.127Z,38.01
2022-08-17T13:24:19.803Z,37.61
2022-08-17T13:26:54.261Z,37.71
2022-08-17T13:29:45.100Z,37.89
2022-08-17T13:32:39.857Z,38.39
2022-08-17T13:35:39.783Z,38.47
2022-08-17T13:38:10.280Z,37.97
2022-08-17T13:40:45.234Z,38.19
2022-08-17T13:43:48.500Z,37.99
2022-08-17T13:46:19.637Z,38.04
2022-08-17T13:49:04.756Z,38.20
2022-08-17T13:51:45.319Z,38.86
2022-08-17T13:54:26.651Z,38.15
2022-08-17T13:56:57.888Z,38.07
2022-08-17T13:59:53.326Z,37.72
2022-08-17T14:02:22.962Z,38.12
2022-08-17T14:04:56.855Z,38.31
2022-08-17T14:07:32.473Z,38.78
2022-08-17T14:10:02.599Z,38.89
2022-08-17T14:12:32.023Z,39.02
2022-08-17T14:15:01.103Z,39.18
2022-08-17T14:17:35.052Z,38.93
2022-08-17T14:20:12.470Z,39.36
2022-08-17T14:22:45.106Z,39.66
2022-08-17T14:25:16.886Z,39.69
2022-08-17T14:27:52.829Z,39.63
2022-08-17T14:30:29.117Z,39.45
2022-08-17T14:32:59.227Z,39.15
2022-08-17T14:35:28.307Z,38.92
2022-08-17T14:37:56.867Z,38.67
2022-08-17T14:40:25.718Z,38.51
2022-08-17T14:42:56.038Z,38.04
2022-08-17T14:45:27.391Z,37.69
2022-08-17T14:48:04.643Z,37.08
2022-08-17T14:50:35.341Z,36.80
2022-08-17T14:53:06.890Z,37.11
2022-08-17T14:55:37.015Z,36.99
2022-08-17T14:58:04.779Z,36.55
2022-08-17T15:00:33.601Z,36.76
2022-08-17T15:03:02.572Z,36.53
2022-08-17T15:05:36.671Z,36.38
2022-08-17T15:08:06.187Z,36.15
2022-08-17T15:10:34.642Z,36.08
2022-08-17T15:13:02.789Z,36.11
2022-08-17T15:15:31.194Z,35.83
2022-08-17T15:18:00.385Z,36.07
2022-08-17T15:20:29.814Z,36.48
2022-08-17T15:22:59.330Z,36.38
2022-08-17T15:25:29.975Z,36.01
2022-08-17T15:27:58.793Z,35.83
2022-08-17T15:30:27.796Z,35.88
2022-08-17T15:33:06.390Z,36.24
2022-08-17T15:35:39.294Z,36.60
2022-08-17T15:38:12.080Z,36.54
2022-08-17T15:40:44.415Z,35.81
2022-08-17T15:43:24.759Z,35.56
2022-08-17T15:46:01.783Z,35.46
2022-08-17T15:48:41.790Z,35.57
2022-08-17T15:51:24.151Z,35.32
2022-08-17T15:53:57.638Z,35.08
2022-08-17T15:56:27.004Z,35.31
2022-08-17T15:58:55.437Z,35.27
2022-08-17T16:01:40.512Z,35.76
2022-08-17T16:04:26.910Z,35.69
2022-08-17T16:07:07.040Z,35.78
2022-08-17T16:09:38.955Z,35.58
2022-08-17T16:12:16.833Z,35.91
2022-08-17T16:14:46.152Z,36.26
2022-08-17T16:17:38.502Z,36.51
2022-08-17T16:20:03.167Z,36.73
2022-08-17T16:22:40.124Z,36.87
2022-08-17T16:25:17.436Z,36.91
2022-08-17T16:27:48.210Z,37.25
2022-08-17T16:30:17.713Z,37.15
2022-08-17T16:32:50.694Z,37.02
2022-08-17T16:35:22.147Z,36.55
2022-08-17T16:37:54.360Z,36.69
2022-08-17T16:40:26.025Z,37.42
2022-08-17T16:42:55.471Z,37.65
2022-08-17T16:45:31.450Z,37.62
2022-08-17T16:48:01.742Z,37.79
2022-08-17T16:50:29.853Z,37.80
2022-08-17T16:53:17.465Z,37.64
2022-08-17T16:55:47.102Z,37.94
2022-08-17T16:58:15.935Z,38.14
2022-08-17T17:00:46.665Z,38.22
2022-08-17T17:03:19.615Z,38.42
2022-08-17T17:05:51.465Z,39.02
2022-08-17T17:08:40.719Z,39.83
2022-08-17T17:11:21.645Z,39.80
2022-08-17T17:14:05.240Z,39.92
2022-08-17T17:16:50.556Z,40.17
2022-08-17T17:19:35.140Z,40.39
2022-08-17T17:22:15.834Z,40.40
2022-08-17T17:25:02.687Z,40.58
2022-08-17T17:27:44.714Z,41.14
2022-08-17T17:30:48.665Z,41.40
2022-08-17T17:33:24.863Z,41.78
2022-08-17T17:35:59.357Z,42.24
2022-08-17T17:38:37.710Z,42.33
2022-08-17T17:41:26.318Z,42.43
2022-08-17T17:44:03.037Z,43.09
2022-08-17T17:46:37.995Z,43.51
2022-08-17T17:49:06.724Z,43.73
2022-08-17T17:52:06.607Z,44.20
2022-08-17T17:54:39.500Z,44.85
2022-08-17T17:57:21.406Z,45.59
2022-08-17T17:59:52.053Z,46.38
2022-08-17T18:02:52.193Z,46.63
2022-08-17T18:05:48.785Z,46.95
2022-08-17T18:08:33.901Z,47.60
2022-08-17T18:11:08.531Z,47.87
2022-08-17T18:13:53.566Z,47.99
2022-08-17T18:16:22.653Z,48.00
2022-08-17T18:18:52.749Z,48.11
2022-08-17T18:21:24.286Z,48.46
2022-08-17T18:24:01.379Z,48.60
2022-08-17T18:26:57.677Z,49.20
2022-08-17T18:29:31.644Z,49.78
2022-08-17T18:32:18.239Z,50.11
2022-08-17T18:34:49.491Z,50.36
2022-08-17T18:37:55.488Z,50.65
2022-08-17T18:40:27.517Z,51.36
2022-08-17T18:43:02.888Z,51.84
2022-08-17T18:45:38.535Z,51.87
2022-08-17T18:48:22.767Z,52.09
2022-08-17T18:50:53.467Z,52.34
2022-08-17T18:53:34.861Z,52.89
2022-08-17T18:56:35.051Z,52.92
2022-08-17T18:59:27.116Z,52.86
2022-08-17T19:02:15.299Z,53.06
2022-08-17T19:05:08.171Z,53.04
2022-08-17T19:07:40.902Z,53.33
2022-08-17T19:10:23.974Z,53.70
2022-08-17T19:13:14.089Z,54.15
2022-08-17T19:16:15.970Z,54.16
2022-08-17T19:18:50.932Z,54.37
2022-08-17T19:21:27.226Z,54.64
2022-08-17T19:24:19.678Z,54.85
2022-08-17T19:26:56.851Z,55.09
2022-08-17T19:30:07.819Z,55.44
2022-08-17T19:32:36.656Z,55.67
2022-08-17T19:35:08.297Z,55.71
2022-08-17T19:37:47.516Z,55.72
2022-08-17T19:40:53.700Z,55.96
2022-08-17T19:43:47.303Z,56.47
2022-08-17T19:46:48.641Z,56.71
2022-08-17T19:49:50.485Z,57.67
2022-08-17T19:52:27.203Z,57.92
2022-08-17T19:55:09.017Z,58.25
2022-08-17T19:58:07.868Z,58.61
2022-08-17T20:00:42.975Z,58.42
2022-08-17T20:03:34.239Z,59.25
2022-08-17T20:06:12.928Z,59.74
2022-08-17T20:08:54.040Z,59.86
2022-08-17T20:11:31.484Z,60.56
2022-08-17T20:14:28.712Z,60.50
2022-08-17T20:17:01.920Z,60.95
2022-08-17T20:20:01.566Z,61.53
2022-08-17T20:22:50.421Z,61.93
2022-08-17T20:25:31.604Z,61.96
2022-08-17T20:28:24.170Z,62.02
2022-08-17T20:30:52.581Z,61.92
2022-08-17T20:33:36.764Z,62.10
2022-08-17T20:36:22.741Z,62.48
2022-08-17T20:38:56.683Z,62.51
2022-08-17T20:41:29.905Z,62.83
2022-08-17T20:43:58.441Z,62.84
2022-08-17T20:46:41.942Z,63.33
2022-08-17T20:49:22.767Z,63.48
2022-08-17T20:52:02.930Z,63.60
2022-08-17T20:54:57.829Z,63.59
2022-08-17T20:57:34.408Z,63.95
2022-08-17T21:00:19.071Z,64.05
2022-08-17T21:02:50.093Z,63.92
2022-08-17T21:05:38.616Z,63.92
2022-08-17T21:08:16.711Z,63.56
2022-08-17T21:10:47.094Z,63.54
2022-08-17T21:13:15.703Z,63.34
2022-08-17T21:16:22.408Z,63.21
2022-08-17T21:19:03.176Z,63.23
2022-08-17T21:21:58.200Z,63.04
2022-08-17T21:24:55.418Z,62.96
2022-08-17T21:27:37.503Z,62.56
2022-08-17T21:30:06.628Z,62.74
2022-08-17T21:32:42.176Z,62.56
2022-08-17T21:35:19.428Z,62.26
2022-08-17T21:37:50.576Z,62.18
2022-08-17T21:40:25.402Z,62.07
2022-08-17T21:42:58.196Z,62.19
2022-08-17T21:45:36.112Z,62.36
2022-08-17T21:48:19.777Z,62.40
2022-08-17T21:51:18.113Z,62.63
2022-08-17T21:53:56.189Z,63.10
2022-08-17T21:56:33.044Z,63.43
2022-08-17T21:59:04.774Z,63.52
2022-08-17T22:01:37.464Z,63.63
2022-08-17T22:04:17.625Z,63.65
2022-08-17T22:06:52.349Z,63.76
2022-08-17T22:09:32.326Z,63.82
2022-08-17T22:12:07.215Z,63.73
2022-08-17T22:14:52.960Z,64.09
2022-08-17T22:17:29.812Z,64.38
2022-08-17T22:20:09.440Z,64.32
2022-08-17T22:23:03.974Z,64.31
2022-08-17T22:25:36.210Z,64.57
2022-08-17T22:28:09.593Z,64.98
2022-08-17T22:31:01.299Z,65.31
2022-08-17T22:33:43.923Z,65.60
2022-08-17T22:36:30.239Z,65.68
2022-08-17T22:39:22.405Z,65.78
2022-08-17T22:41:54.868Z,65.85
2022-08-17T22:44:23.374Z,66.19
2022-08-17T22:46:55.586Z,66.16
2022-08-17T22:49:38.781Z,66.26
2022-08-17T22:52:32.040Z,66.41
2022-08-17T22:55:35.035Z,66.51
2022-08-17T22:58:29.611Z,66.79
2022-08-17T23:01:31.621Z,67.07
2022-08-17T23:04:06.812Z,67.24
2022-08-17T23:06:37.723Z,67.20
2022-08-17T23:09:07.580Z,67.15
2022-08-17T23:11:49.889Z,66.99
2022-08-17T23:14:22.612Z,66.90
2022-08-17T23:16:51.092Z,66.88
2022-08-17T23:19:21.319Z,67.05
2022-08-17T23:21:52.641Z,66.99
2022-08-17T23:24:24.744Z,67.17
2022-08-17T23:26:54.346Z,67.28
2022-08-17T23:29:22.580Z,67.45
2022-08-17T23:31:51.899Z,67.53
2022-08-17T23:34:19.894Z,67.67
2022-08-17T23:36:52.358Z,67.68
2022-08-17T23:39:24.631Z,67.70
2022-08-17T23:42:00.973Z,67.77
2022-08-17T23:44:28.927Z,67.91
2022-08-17T23:46:57.525Z,67.87
2022-08-17T23:49:25.695Z,67.92
2022-08-17T23:51:55.306Z,68.08
2022-08-17T23:54:26.973Z,68.17
2022-08-17T23:56:54.909Z,68.28
2022-08-17T23:59:23.730Z,68.10
